createdAt,value
2024-03-08T00:01:23.849Z,70.95
2024-03-08T00:03:52.744Z,70.74
2024-03-08T00:06:19.742Z,70.48
2024-03-08T00:08:46.686Z,70.59
2024-03-08T00:11:13.746Z,70.58
2024-03-08T00:13:40.713Z,70.58
2024-03-08T00:16:09.860Z,70.85
2024-03-08T00:18:37.289Z,70.85
2024-03-08T00:21:05.082Z,70.69
2024-03-08T00:23:34.010Z,70.68
2024-03-08T00:26:01.297Z,70.77
2024-03-08T00:28:28.495Z,70.82
2024-03-08T00:30:55.290Z,70.86
2024-03-08T00:33:22.337Z,71.02
2024-03-08T00:35:49.239Z,71.02
2024-03-08T00:38:15.946Z,71.15
2024-03-08T00:40:42.739Z,71.32
2024-03-08T00:43:12.280Z,71.48
2024-03-08T00:45:39.107Z,71.30
2024-03-08T00:48:06.450Z,71.22
2024-03-08T00:50:34.566Z,71.11
2024-03-08T00:53:01.428Z,71.04
2024-03-08T00:55:30.567Z,71.11
2024-03-08T00:58:01.560Z,71.05
2024-03-08T01:00:28.752Z,71.13
2024-03-08T01:02:56.251Z,71.34
2024-03-08T01:05:25.014Z,71.22
2024-03-08T01:07:51.909Z,71.15
2024-03-08T01:10:18.647Z,71.21
2024-03-08T01:12:45.986Z,71.10
2024-03-08T01:15:13.135Z,71.19
2024-03-08T01:17:42.892Z,71.25
2024-03-08T01:20:13.102Z,71.43
2024-03-08T01:22:44.720Z,71.35
2024-03-08T01:25:11.632Z,71.29
2024-03-08T01:27:40.681Z,70.99
2024-03-08T01:30:12.042Z,70.96
2024-03-08T01:32:39.074Z,70.88
2024-03-08T01:35:06.538Z,70.97
2024-03-08T01:37:37.126Z,71.01
2024-03-08T01:40:04.301Z,71.19
2024-03-08T01:44:17.088Z,71.22
2024-03-08T01:46:52.483Z,71.17
2024-03-08T01:49:22.027Z,71.12
2024-03-08T01:51:52.560Z,71.12
2024-03-08T01:54:21.198Z,71.18
2024-03-08T01:56:48.820Z,71.32
2024-03-08T01:59:16.589Z,71.44
2024-03-08T02:01:44.565Z,71.48
2024-03-08T02:04:12.409Z,71.66
2024-03-08T02:06:40.024Z,71.54
2024-03-08T02:09:08.282Z,71.50
2024-03-08T02:11:37.665Z,71.38
2024-03-08T02:14:07.722Z,71.40
2024-03-08T02:16:35.719Z,71.63
2024-03-08T02:19:03.417Z,71.90
2024-03-08T02:21:31.302Z,71.88
2024-03-08T02:23:59.016Z,71.79
2024-03-08T02:26:26.816Z,71.70
2024-03-08T02:28:55.481Z,71.64
2024-03-08T02:31:23.020Z,71.69
2024-03-08T02:33:50.771Z,71.94
2024-03-08T02:36:18.601Z,71.87
2024-03-08T02:38:46.469Z,71.82
2024-03-08T02:41:14.279Z,71.70
2024-03-08T02:43:41.757Z,71.77
2024-03-08T02:46:09.509Z,71.86
2024-03-08T02:48:41.815Z,71.82
2024-03-08T02:51:09.785Z,71.51
2024-03-08T02:53:37.418Z,71.69
2024-03-08T02:56:06.061Z,71.77
2024-03-08T02:58:33.581Z,71.93
2024-03-08T03:01:01.182Z,71.93
2024-03-08T03:03:28.974Z,72.01
2024-03-08T03:05:56.924Z,71.85
2024-03-08T03:08:25.039Z,71.96
2024-03-08T03:10:54.965Z,71.89
2024-03-08T03:13:22.441Z,71.67
2024-03-08T03:15:50.204Z,71.73
2024-03-08T03:18:19.283Z,71.75
2024-03-08T03:20:47.260Z,71.85
2024-03-08T03:23:22.154Z,71.93
2024-03-08T03:25:50.368Z,71.88
2024-03-08T03:28:19.672Z,71.92
2024-03-08T03:30:48.221Z,71.88
2024-03-08T03:33:17.967Z,71.87
2024-03-08T03:35:45.749Z,71.97
2024-03-08T03:38:15.540Z,71.87
2024-03-08T03:40:43.530Z,71.89
2024-03-08T03:43:12.126Z,72.09
2024-03-08T03:45:40.716Z,71.98
2024-03-08T03:48:11.147Z,72.15
2024-03-08T03:50:41.235Z,71.99
2024-03-08T03:53:10.398Z,71.69
2024-03-08T03:55:41.263Z,71.51
2024-03-08T03:58:12.115Z,71.47
2024-03-08T04:00:40.533Z,71.62
2024-03-08T04:03:10.222Z,71.33
2024-03-08T04:05:38.275Z,71.35
2024-03-08T04:08:06.301Z,71.46
2024-03-08T04:10:33.942Z,71.57
2024-03-08T04:13:01.701Z,71.25
2024-03-08T04:15:29.361Z,71.19
2024-03-08T04:17:58.784Z,71.22
2024-03-08T04:20:26.486Z,71.36
2024-03-08T04:22:54.329Z,71.52
2024-03-08T04:25:22.561Z,71.63
2024-03-08T04:27:50.862Z,71.50
2024-03-08T04:30:19.385Z,71.48
2024-03-08T04:32:47.033Z,71.65
2024-03-08T04:35:16.020Z,71.54
2024-03-08T04:37:43.507Z,71.41
2024-03-08T04:40:12.468Z,71.56
2024-03-08T04:42:40.788Z,71.31
2024-03-08T04:45:09.779Z,71.25
2024-03-08T04:47:38.531Z,71.25
2024-03-08T04:50:07.054Z,71.49
2024-03-08T04:52:34.610Z,71.76
2024-03-08T04:55:27.869Z,71.95
2024-03-08T04:57:55.976Z,71.92
2024-03-08T05:00:24.101Z,71.73
2024-03-08T05:02:54.809Z,71.65
2024-03-08T05:05:24.175Z,71.67
2024-03-08T05:07:51.938Z,71.79
2024-03-08T05:10:19.520Z,71.79
2024-03-08T05:12:47.334Z,71.64
2024-03-08T05:15:15.879Z,71.54
2024-03-08T05:17:43.798Z,71.41
2024-03-08T05:20:14.916Z,71.29
2024-03-08T05:22:42.472Z,71.06
2024-03-08T05:25:10.301Z,71.05
2024-03-08T05:27:37.840Z,71.02
2024-03-08T05:30:06.303Z,71.04
2024-03-08T05:32:34.143Z,71.12
2024-03-08T05:35:04.158Z,71.16
2024-03-08T05:37:32.806Z,71.40
2024-03-08T05:40:03.560Z,71.43
2024-03-08T05:42:31.356Z,71.54
2024-03-08T05:45:00.369Z,71.52
2024-03-08T05:47:31.355Z,71.30
2024-03-08T05:49:59.440Z,71.48
2024-03-08T05:55:15.583Z,71.40
2024-03-08T05:57:43.612Z,71.54
2024-03-08T06:00:20.287Z,71.78
2024-03-08T06:02:48.025Z,71.83
2024-03-08T06:05:19.400Z,71.82
2024-03-08T06:07:54.653Z,71.52
2024-03-08T06:10:22.221Z,71.42
2024-03-08T06:12:49.987Z,71.42
2024-03-08T06:15:17.703Z,71.34
2024-03-08T06:17:50.292Z,71.50
2024-03-08T06:20:18.084Z,71.38
2024-03-08T06:22:46.285Z,71.33
2024-03-08T06:25:17.057Z,71.12
2024-03-08T06:27:47.001Z,71.21
2024-03-08T06:30:17.365Z,70.97
2024-03-08T06:32:45.238Z,70.99
2024-03-08T06:35:13.321Z,70.79
2024-03-08T06:37:40.967Z,70.90
2024-03-08T06:40:11.155Z,70.92
2024-03-08T06:42:38.746Z,70.92
2024-03-08T06:45:07.845Z,71.06
2024-03-08T06:47:35.867Z,71.31
2024-03-08T06:50:03.965Z,71.46
2024-03-08T06:52:31.512Z,71.37
2024-03-08T06:54:59.329Z,71.19
2024-03-08T06:57:27.035Z,70.79
2024-03-08T06:59:55.817Z,70.65
2024-03-08T07:02:25.899Z,70.66
2024-03-08T07:04:54.321Z,70.67
2024-03-08T07:07:21.797Z,70.52
2024-03-08T07:09:50.652Z,70.37
2024-03-08T07:12:18.505Z,70.67
2024-03-08T07:14:46.816Z,70.66
2024-03-08T07:17:14.608Z,70.61
2024-03-08T07:19:42.356Z,70.64
2024-03-08T07:22:10.039Z,69.94
2024-03-08T07:24:55.904Z,69.49
2024-03-08T07:27:23.642Z,69.43
2024-03-08T07:29:51.393Z,69.54
2024-03-08T07:32:26.756Z,69.75
2024-03-08T07:34:54.374Z,69.39
2024-03-08T07:37:22.025Z,69.35
2024-03-08T07:39:49.606Z,69.62
2024-03-08T07:42:18.373Z,69.66
2024-03-08T07:44:47.798Z,69.89
2024-03-08T07:47:15.532Z,69.71
2024-03-08T07:49:43.090Z,69.65
2024-03-08T07:52:17.450Z,69.89
2024-03-08T07:54:45.414Z,69.83
2024-03-08T07:57:15.351Z,69.74
2024-03-08T07:59:42.959Z,69.75
2024-03-08T08:09:47.044Z,69.51
2024-03-08T08:12:15.381Z,69.44
2024-03-08T08:14:43.088Z,69.61
2024-03-08T08:17:10.762Z,69.71
2024-03-08T08:19:38.403Z,69.54
2024-03-08T08:22:06.039Z,69.66
2024-03-08T08:24:33.750Z,69.86
2024-03-08T08:27:03.708Z,69.87
2024-03-08T08:37:16.304Z,69.67
2024-03-08T08:39:44.695Z,69.60
2024-03-08T08:42:12.463Z,69.51
2024-03-08T08:44:40.468Z,69.63
2024-03-08T08:47:12.944Z,69.70
2024-03-08T08:49:44.399Z,69.53
2024-03-08T08:52:16.610Z,69.47
2024-03-08T08:54:48.798Z,69.57
2024-03-08T08:57:18.625Z,69.53
2024-03-08T08:59:47.026Z,69.40
2024-03-08T09:02:18.660Z,69.33
2024-03-08T09:04:46.764Z,69.32
2024-03-08T09:07:15.010Z,69.44
2024-03-08T09:09:43.451Z,69.36
2024-03-08T09:12:14.605Z,69.17
2024-03-08T09:14:42.591Z,69.16
2024-03-08T09:17:10.308Z,69.39
2024-03-08T09:19:38.050Z,69.39
2024-03-08T09:22:07.970Z,69.27
2024-03-08T09:24:35.701Z,69.30
2024-03-08T09:27:04.424Z,69.67
2024-03-08T09:29:32.197Z,69.75
2024-03-08T09:31:59.882Z,69.58
2024-03-08T09:34:32.821Z,69.71
2024-03-08T09:37:10.277Z,69.36
2024-03-08T09:46:01.823Z,69.19
2024-03-08T09:48:32.542Z,69.02
2024-03-08T09:51:00.301Z,68.90
2024-03-08T09:53:27.927Z,68.74
2024-03-08T09:55:56.155Z,68.52
2024-03-08T09:58:37.978Z,68.43
2024-03-08T10:01:08.569Z,68.45
2024-03-08T10:03:36.222Z,68.74
2024-03-08T10:06:04.050Z,68.59
2024-03-08T10:08:33.900Z,68.69
2024-03-08T10:11:02.213Z,68.59
2024-03-08T10:13:30.368Z,68.82
2024-03-08T10:15:58.038Z,68.31
2024-03-08T10:18:31.092Z,68.22
2024-03-08T10:21:16.598Z,67.91
2024-03-08T10:23:46.946Z,67.77
2024-03-08T10:26:17.553Z,67.46
2024-03-08T10:28:52.468Z,67.93
2024-03-08T10:31:20.977Z,68.06
2024-03-08T10:33:48.842Z,67.88
2024-03-08T10:36:16.663Z,67.53
2024-03-08T10:38:48.809Z,67.42
2024-03-08T10:41:18.374Z,67.57
2024-03-08T10:44:24.344Z,67.37
2024-03-08T10:46:58.320Z,67.53
2024-03-08T10:49:27.533Z,67.16
2024-03-08T10:51:55.197Z,66.81
2024-03-08T10:54:22.775Z,66.56
2024-03-08T10:56:51.778Z,66.75
2024-03-08T10:59:20.131Z,66.82
2024-03-08T11:01:48.228Z,66.56
2024-03-08T11:04:17.044Z,66.15
2024-03-08T11:06:46.614Z,65.95
2024-03-08T11:09:33.054Z,65.72
2024-03-08T11:12:36.268Z,65.63
2024-03-08T11:15:16.090Z,65.47
2024-03-08T11:17:50.353Z,65.40
2024-03-08T11:20:22.721Z,65.15
2024-03-08T11:23:02.259Z,64.88
2024-03-08T11:25:43.011Z,64.57
2024-03-08T11:28:19.637Z,64.34
2024-03-08T11:31:00.845Z,64.38
2024-03-08T11:33:29.533Z,63.89
2024-03-08T11:36:13.098Z,63.96
2024-03-08T11:38:50.402Z,64.19
2024-03-08T11:41:19.554Z,64.21
2024-03-08T11:43:47.796Z,63.89
2024-03-08T11:46:16.452Z,63.86
2024-03-08T11:48:45.042Z,63.31
2024-03-08T11:51:13.074Z,63.24
2024-03-08T11:53:43.306Z,63.30
2024-03-08T11:56:13.731Z,63.05
2024-03-08T11:58:52.658Z,63.29
2024-03-08T12:01:20.272Z,63.26
2024-03-08T12:03:53.695Z,63.29
2024-03-08T12:06:21.305Z,62.83
2024-03-08T12:08:50.460Z,62.74
2024-03-08T12:11:24.997Z,62.88
2024-03-08T12:13:53.632Z,62.72
2024-03-08T12:16:23.001Z,61.93
2024-03-08T12:18:53.164Z,61.84
2024-03-08T12:21:26.454Z,61.78
2024-03-08T12:24:04.965Z,61.77
2024-03-08T12:26:33.805Z,62.12
2024-03-08T12:29:26.551Z,62.06
2024-03-08T12:31:55.649Z,61.40
2024-03-08T12:34:24.518Z,61.24
2024-03-08T12:36:55.346Z,61.33
2024-03-08T12:39:29.543Z,61.31
2024-03-08T12:42:00.742Z,61.95
2024-03-08T12:44:30.083Z,62.37
2024-03-08T12:47:06.336Z,61.75
2024-03-08T12:49:34.336Z,61.79
2024-03-08T12:52:02.849Z,62.33
2024-03-08T12:54:32.292Z,62.02
2024-03-08T12:57:00.052Z,61.74
2024-03-08T12:59:27.688Z,61.61
2024-03-08T13:01:59.671Z,61.35
2024-03-08T13:04:27.342Z,61.28
2024-03-08T13:06:55.986Z,61.04
2024-03-08T13:09:23.979Z,60.47
2024-03-08T13:11:54.340Z,60.24
2024-03-08T13:14:22.631Z,60.53
2024-03-08T13:16:50.331Z,60.59
2024-03-08T13:19:18.120Z,60.00
2024-03-08T13:21:50.707Z,59.93
2024-03-08T13:24:20.243Z,60.54
2024-03-08T13:26:48.649Z,60.92
2024-03-08T13:29:16.319Z,60.52
2024-03-08T13:31:46.662Z,60.35
2024-03-08T13:34:17.697Z,60.68
2024-03-08T13:36:47.738Z,60.80
2024-03-08T13:39:19.420Z,60.71
2024-03-08T13:41:47.838Z,60.49
2024-03-08T13:44:15.579Z,60.23
2024-03-08T13:46:44.752Z,60.36
2024-03-08T13:49:14.910Z,60.87
2024-03-08T13:51:53.241Z,60.99
2024-03-08T13:54:20.753Z,61.01
2024-03-08T13:56:48.660Z,61.34
2024-03-08T14:02:14.935Z,61.07
2024-03-08T14:04:43.664Z,61.08
2024-03-08T14:07:12.465Z,61.19
2024-03-08T14:09:44.488Z,61.01
2024-03-08T14:12:12.309Z,61.09
2024-03-08T14:14:43.270Z,61.33
2024-03-08T14:17:12.590Z,61.12
2024-03-08T14:19:49.846Z,61.08
2024-03-08T14:22:21.476Z,61.08
2024-03-08T14:25:09.763Z,61.30
2024-03-08T14:27:41.010Z,61.11
2024-03-08T14:30:11.740Z,61.16
2024-03-08T14:32:40.238Z,61.33
2024-03-08T14:35:08.360Z,61.41
2024-03-08T14:37:36.060Z,61.99
2024-03-08T14:40:12.337Z,62.05
2024-03-08T14:42:44.206Z,61.97
2024-03-08T14:45:11.914Z,61.64
2024-03-08T14:47:39.584Z,61.35
2024-03-08T14:50:10.953Z,61.26
2024-03-08T14:52:41.142Z,61.01
2024-03-08T14:55:09.934Z,60.82
2024-03-08T14:57:37.602Z,60.89
2024-03-08T15:00:08.480Z,60.85
2024-03-08T15:02:38.039Z,60.82
2024-03-08T15:05:15.342Z,60.82
2024-03-08T15:07:44.015Z,60.89
2024-03-08T15:10:21.871Z,60.98
2024-03-08T15:12:52.612Z,61.39
2024-03-08T15:15:21.671Z,61.64
2024-03-08T15:17:49.262Z,61.82
2024-03-08T15:20:31.451Z,62.03
2024-03-08T15:23:00.514Z,62.28
2024-03-08T15:25:32.551Z,62.38
2024-03-08T15:28:00.219Z,62.54
2024-03-08T15:30:30.296Z,62.76
2024-03-08T15:32:58.893Z,62.83
2024-03-08T15:35:27.356Z,62.95
2024-03-08T15:37:58.982Z,62.99
2024-03-08T15:40:29.289Z,63.08
2024-03-08T15:42:57.148Z,63.16
2024-03-08T15:45:33.861Z,63.19
2024-03-08T15:48:06.410Z,63.24
2024-03-08T15:50:36.522Z,63.43
2024-03-08T15:53:05.590Z,63.43
2024-03-08T15:55:35.901Z,63.63
2024-03-08T15:58:04.412Z,63.79
2024-03-08T16:00:35.844Z,63.72
2024-03-08T16:03:13.344Z,63.95
2024-03-08T16:05:47.303Z,64.03
2024-03-08T16:08:17.007Z,64.32
2024-03-08T16:10:52.306Z,64.62
2024-03-08T16:13:21.664Z,64.68
2024-03-08T16:15:58.387Z,64.68
2024-03-08T16:18:29.170Z,64.58
2024-03-08T16:20:56.948Z,64.84
2024-03-08T16:23:25.340Z,65.04
2024-03-08T16:25:54.812Z,65.25
2024-03-08T16:28:31.152Z,65.37
2024-03-08T16:31:01.368Z,65.36
2024-03-08T16:33:31.362Z,65.54
2024-03-08T16:35:59.719Z,65.62
2024-03-08T16:38:29.464Z,65.81
2024-03-08T16:40:58.770Z,66.05
2024-03-08T16:43:26.554Z,66.23
2024-03-08T16:45:55.297Z,66.42
2024-03-08T16:48:24.992Z,66.45
2024-03-08T16:50:56.118Z,66.45
2024-03-08T16:53:30.198Z,66.45
2024-03-08T16:55:59.254Z,66.79
2024-03-08T16:58:27.028Z,66.80
2024-03-08T17:00:54.676Z,66.98
2024-03-08T17:03:25.218Z,67.07
2024-03-08T17:05:57.147Z,67.27
2024-03-08T17:08:36.901Z,67.43
2024-03-08T17:11:21.991Z,67.45
2024-03-08T17:13:56.206Z,67.63
2024-03-08T17:16:26.650Z,67.77
2024-03-08T17:18:55.303Z,67.77
2024-03-08T17:21:23.239Z,67.83
2024-03-08T17:23:50.986Z,68.06
2024-03-08T17:26:19.974Z,68.07
2024-03-08T17:28:49.295Z,68.03
2024-03-08T17:31:17.111Z,68.06
2024-03-08T17:33:48.891Z,68.25
2024-03-08T17:36:18.038Z,68.44
2024-03-08T17:38:49.234Z,68.74
2024-03-08T17:41:41.931Z,68.74
2024-03-08T17:44:34.848Z,68.84
2024-03-08T17:47:05.875Z,68.87
2024-03-08T17:49:33.690Z,68.87
2024-03-08T17:52:05.669Z,68.92
2024-03-08T17:54:33.862Z,69.24
2024-03-08T17:57:02.364Z,69.20
2024-03-08T17:59:31.047Z,69.18
2024-03-08T18:01:59.149Z,69.30
2024-03-08T18:04:27.151Z,69.36
2024-03-08T18:06:54.885Z,69.56
2024-03-08T18:09:24.632Z,69.61
2024-03-08T18:11:52.194Z,69.82
2024-03-08T18:14:19.840Z,69.94
2024-03-08T18:16:47.522Z,70.05
2024-03-08T18:19:20.564Z,70.14
2024-03-08T18:21:49.626Z,70.03
2024-03-08T18:24:19.439Z,69.90
2024-03-08T18:26:47.942Z,70.04
2024-03-08T18:29:17.129Z,70.27
2024-03-08T18:31:49.593Z,70.35
2024-03-08T18:34:21.184Z,70.40
2024-03-08T18:36:49.797Z,70.40
2024-03-08T18:39:17.785Z,70.20
2024-03-08T18:41:45.538Z,70.13
2024-03-08T18:44:14.921Z,70.06
2024-03-08T18:46:42.651Z,70.14
2024-03-08T18:49:10.130Z,70.13
2024-03-08T18:51:37.658Z,70.21
2024-03-08T18:54:05.256Z,70.21
2024-03-08T18:56:32.760Z,70.25
2024-03-08T18:59:00.438Z,70.36
2024-03-08T19:04:25.148Z,70.41
2024-03-08T19:13:38.729Z,70.46
2024-03-08T19:16:07.537Z,70.55
2024-03-08T19:18:36.856Z,70.49
2024-03-08T19:21:04.653Z,70.68
2024-03-08T19:23:36.316Z,70.83
2024-03-08T19:31:58.734Z,70.81
2024-03-08T19:34:29.436Z,70.69
2024-03-08T19:36:58.613Z,70.74
2024-03-08T19:39:26.756Z,70.76
2024-03-08T19:41:54.379Z,70.95
2024-03-08T19:44:22.068Z,71.01
2024-03-08T19:46:49.791Z,71.20
2024-03-08T19:49:18.248Z,71.25
2024-03-08T19:51:47.301Z,71.35
2024-03-08T19:54:16.074Z,71.60
2024-03-08T19:56:47.178Z,71.47
2024-03-08T19:59:14.882Z,71.51
2024-03-08T20:01:42.920Z,71.35
2024-03-08T20:04:10.704Z,71.46
2024-03-08T20:06:41.224Z,71.43
2024-03-08T20:09:08.706Z,71.51
2024-03-08T20:11:40.001Z,71.55
2024-03-08T20:14:07.934Z,71.67
2024-03-08T20:16:36.231Z,71.82
2024-03-08T20:19:04.556Z,71.83
2024-03-08T20:21:32.181Z,71.84
2024-03-08T20:24:02.636Z,71.59
2024-03-08T20:26:30.224Z,71.66
2024-03-08T20:28:59.066Z,71.78
2024-03-08T20:31:26.789Z,71.74
2024-03-08T20:33:54.465Z,71.80
2024-03-08T20:36:21.996Z,71.73
2024-03-08T20:38:49.526Z,71.93
2024-03-08T20:41:17.539Z,71.88
2024-03-08T20:43:45.724Z,71.96
2024-03-08T20:46:16.707Z,71.90
2024-03-08T20:48:46.985Z,71.87
2024-03-08T20:51:14.741Z,71.68
2024-03-08T20:53:42.193Z,71.64
2024-03-08T20:56:09.795Z,71.71
2024-03-08T20:58:37.568Z,71.77
2024-03-08T21:01:10.011Z,72.07
2024-03-08T21:03:39.082Z,72.22
2024-03-08T21:06:08.762Z,72.33
2024-03-08T21:08:39.409Z,72.37
2024-03-08T21:11:07.308Z,72.39
2024-03-08T21:13:37.151Z,72.17
2024-03-08T21:16:06.867Z,72.13
2024-03-08T21:18:34.662Z,72.18
2024-03-08T21:21:04.777Z,72.22
2024-03-08T21:23:33.497Z,72.23
2024-03-08T21:26:02.592Z,72.34
2024-03-08T21:28:31.275Z,72.42
2024-03-08T21:31:02.139Z,72.55
2024-03-08T21:33:29.905Z,72.55
2024-03-08T21:35:57.402Z,72.36
2024-03-08T21:38:27.046Z,72.34
2024-03-08T21:41:02.474Z,72.28
2024-03-08T21:43:36.297Z,72.26
2024-03-08T21:46:04.405Z,72.30
2024-03-08T21:48:32.068Z,72.55
2024-03-08T21:50:59.731Z,72.50
2024-03-08T21:53:35.702Z,72.32
2024-03-08T21:56:04.140Z,72.27
2024-03-08T21:58:34.929Z,72.29
2024-03-08T22:01:06.258Z,72.02
2024-03-08T22:03:36.848Z,72.01
2024-03-08T22:06:11.674Z,72.07
2024-03-08T22:08:42.958Z,71.91
2024-03-08T22:11:11.344Z,71.94
2024-03-08T22:13:39.142Z,71.91
2024-03-08T22:16:06.803Z,71.92
2024-03-08T22:18:35.894Z,71.96
2024-03-08T22:21:04.158Z,71.94
2024-03-08T22:23:34.049Z,71.98
2024-03-08T22:26:01.915Z,72.08
2024-03-08T22:28:29.473Z,72.12
2024-03-08T22:30:57.055Z,72.12
2024-03-08T22:33:26.373Z,72.21
2024-03-08T22:35:55.133Z,72.35
2024-03-08T22:38:23.001Z,72.16
2024-03-08T22:40:51.396Z,72.14
2024-03-08T22:43:19.008Z,72.14
2024-03-08T22:45:48.328Z,72.18
2024-03-08T22:48:15.886Z,72.11
2024-03-08T22:50:43.621Z,72.04
2024-03-08T22:53:14.777Z,72.03
2024-03-08T22:55:43.409Z,72.12
2024-03-08T22:58:11.850Z,72.10
2024-03-08T23:00:39.377Z,72.08
2024-03-08T23:03:11.651Z,72.02
2024-03-08T23:05:41.511Z,71.82
2024-03-08T23:08:09.508Z,71.71
2024-03-08T23:10:40.658Z,71.74
2024-03-08T23:13:11.061Z,71.84
2024-03-08T23:15:42.733Z,71.80
2024-03-08T23:18:12.743Z,71.90
2024-03-08T23:20:45.825Z,71.91
2024-03-08T23:23:13.685Z,71.89
2024-03-08T23:25:41.591Z,72.06
2024-03-08T23:28:09.754Z,72.10
2024-03-08T23:30:45.713Z,72.12
2024-03-08T23:33:14.499Z,72.10
2024-03-08T23:35:45.000Z,72.15
2024-03-08T23:38:15.997Z,72.10
2024-03-08T23:40:43.824Z,71.84
2024-03-08T23:43:11.621Z,71.77
2024-03-08T23:45:39.634Z,71.69
2024-03-08T23:48:07.977Z,71.70
2024-03-08T23:50:35.910Z,71.57
2024-03-08T23:53:07.208Z,71.60
2024-03-08T23:55:36.063Z,71.64
2024-03-08T23:58:11.098Z,71.66
